createdAt,value
2019-02-04T00:58:41.187Z,98.70
2019-02-04T01:01:09.227Z,98.70
2019-02-04T01:03:36.682Z,98.70
2019-02-04T01:06:05.255Z,98.60
2019-02-04T01:08:32.747Z,98.50
2019-02-04T01:11:00.615Z,98.50
2019-02-04T01:13:28.248Z,98.20
2019-02-04T01:15:55.720Z,98.40
2019-02-04T01:18:23.303Z,98.40
2019-02-04T01:20:50.974Z,98.50
2019-02-04T01:23:18.483Z,98.50
2019-02-04T01:25:45.975Z,98.40
2019-02-04T01:28:13.692Z,98.50
2019-02-04T01:30:41.415Z,98.50
2019-02-04T01:33:09.152Z,98.40
2019-02-04T01:35:36.636Z,98.40
2019-02-04T01:38:04.177Z,98.20
2019-02-04T01:40:31.654Z,98.10
2019-02-04T01:42:59.071Z,98.20
2019-02-04T01:45:26.771Z,98.20
2019-02-04T01:47:54.351Z,98.20
2019-02-04T01:50:22.557Z,98.30
2019-02-04T01:52:50.274Z,98.50
2019-02-04T01:55:17.715Z,98.60
2019-02-04T01:57:50.032Z,98.70
2019-02-04T02:00:23.320Z,98.80
2019-02-04T02:02:50.847Z,98.80
2019-02-04T02:05:18.438Z,99.20
2019-02-04T02:07:45.831Z,99.20
2019-02-04T02:10:16.467Z,99.10
2019-02-04T02:12:43.912Z,99.00
2019-02-04T02:15:11.351Z,99.10
2019-02-04T02:17:38.833Z,99.10
2019-02-04T02:20:07.612Z,99.10
2019-02-04T02:22:35.326Z,99.00
2019-02-04T02:25:03.836Z,98.90
2019-02-04T02:27:31.309Z,98.90
2019-02-04T02:29:58.784Z,98.90
2019-02-04T02:32:26.478Z,98.80
2019-02-04T02:34:54.306Z,98.90
2019-02-04T02:37:21.778Z,99.00
2019-02-04T02:39:49.510Z,98.90
2019-02-04T02:42:17.318Z,98.70
2019-02-04T02:44:45.005Z,98.50
2019-02-04T02:47:12.449Z,98.60
2019-02-04T02:49:40.020Z,98.70
2019-02-04T02:52:07.872Z,98.70
2019-02-04T02:54:35.216Z,98.60
2019-02-04T02:57:02.651Z,98.70
2019-02-04T02:59:30.369Z,98.70
2019-02-04T03:01:57.830Z,98.90
2019-02-04T03:04:25.574Z,98.90
2019-02-04T03:06:53.335Z,98.80
2019-02-04T03:09:21.179Z,99.00
2019-02-04T03:11:49.258Z,99.00
2019-02-04T03:14:16.740Z,99.00
2019-02-04T03:16:44.260Z,99.10
2019-02-04T03:19:12.009Z,99.10
2019-02-04T03:21:39.555Z,99.20
2019-02-04T03:24:07.299Z,99.10
2019-02-04T03:26:35.045Z,99.00
2019-02-04T03:29:02.890Z,98.90
2019-02-04T03:31:30.385Z,98.80
2019-02-04T03:33:57.799Z,99.00
2019-02-04T03:36:25.407Z,99.00
2019-02-04T03:38:52.815Z,99.10
2019-02-04T03:41:20.260Z,99.00
2019-02-04T03:43:47.724Z,99.10
2019-02-04T03:46:15.188Z,99.30
2019-02-04T03:48:42.591Z,99.30
2019-02-04T03:51:10.363Z,99.20
2019-02-04T03:53:37.845Z,98.90
2019-02-04T03:56:05.254Z,98.90
2019-02-04T03:58:33.095Z,98.80
2019-02-04T04:01:00.570Z,98.90
2019-02-04T04:03:28.296Z,98.90
2019-02-04T04:05:55.889Z,98.80
2019-02-04T04:08:23.354Z,98.90
2019-02-04T04:10:51.050Z,98.90
2019-02-04T04:13:18.590Z,98.90
2019-02-04T04:15:46.156Z,98.70
2019-02-04T04:18:15.951Z,98.50
2019-02-04T04:20:42.766Z,98.70
2019-02-04T04:23:10.238Z,99.00
2019-02-04T04:25:37.711Z,99.70
2019-02-04T04:28:05.140Z,99.60
2019-02-04T04:30:32.589Z,99.60
2019-02-04T04:33:00.021Z,99.60
2019-02-04T04:35:27.475Z,99.40
2019-02-04T04:37:55.195Z,99.30
2019-02-04T04:40:22.930Z,99.60
2019-02-04T04:42:50.687Z,99.50
2019-02-04T04:45:19.766Z,99.60
2019-02-04T04:47:47.665Z,99.90
2019-02-04T04:50:15.366Z,99.90
2019-02-04T04:52:43.140Z,99.90
2019-02-04T04:55:13.055Z,99.40
2019-02-04T04:57:40.693Z,99.70
2019-02-04T05:00:11.019Z,99.80
2019-02-04T05:02:39.044Z,99.90
2019-02-04T05:05:08.185Z,99.90
2019-02-04T05:07:35.595Z,99.90
2019-02-04T05:10:03.479Z,99.90
2019-02-04T05:12:30.969Z,99.90
2019-02-04T05:14:58.441Z,99.90
2019-02-04T05:17:26.125Z,99.90
2019-02-04T05:19:54.164Z,99.90
2019-02-04T05:22:21.555Z,99.80
2019-02-04T05:24:48.985Z,99.90
2019-02-04T05:27:16.447Z,99.90
2019-02-04T05:29:43.957Z,99.90
2019-02-04T05:32:11.833Z,99.90
2019-02-04T05:34:39.300Z,99.90
2019-02-04T05:37:06.722Z,99.90
2019-02-04T05:39:34.478Z,99.90
2019-02-04T05:42:02.160Z,99.90
2019-02-04T05:44:29.725Z,99.90
2019-02-04T05:46:57.481Z,99.90
2019-02-04T05:49:25.242Z,99.90
2019-02-04T05:51:55.081Z,99.80
2019-02-04T05:54:22.940Z,99.70
2019-02-04T05:56:50.338Z,99.60
2019-02-04T05:59:18.027Z,99.70
2019-02-04T06:01:45.483Z,99.60
2019-02-04T06:04:12.978Z,99.70
2019-02-04T06:06:40.415Z,99.60
2019-02-04T06:09:08.206Z,99.60
2019-02-04T06:11:35.874Z,99.50
2019-02-04T06:14:03.732Z,99.50
2019-02-04T06:16:31.190Z,99.50
2019-02-04T06:19:00.986Z,99.80
2019-02-04T06:21:28.235Z,99.80
2019-02-04T06:23:55.677Z,99.70
2019-02-04T06:26:23.150Z,99.60
2019-02-04T06:28:50.578Z,99.80
2019-02-04T06:31:18.387Z,99.80
2019-02-04T06:33:45.872Z,99.90
2019-02-04T06:36:13.444Z,99.80
2019-02-04T06:38:40.950Z,99.90
2019-02-04T06:41:08.369Z,99.80
2019-02-04T06:43:35.782Z,99.90
2019-02-04T06:46:03.373Z,99.90
2019-02-04T06:48:31.423Z,99.90
2019-02-04T06:50:59.040Z,99.90
2019-02-04T06:53:26.731Z,99.90
2019-02-04T06:55:54.183Z,99.90
2019-02-04T06:58:22.520Z,99.90
2019-02-04T07:00:49.971Z,99.90
2019-02-04T07:03:17.375Z,99.90
2019-02-04T07:05:44.949Z,99.90
2019-02-04T07:08:12.354Z,99.90
2019-02-04T07:10:39.770Z,99.90
2019-02-04T07:13:07.578Z,99.90
2019-02-04T07:15:35.632Z,99.90
2019-02-04T07:18:03.311Z,99.90
2019-02-04T07:20:31.009Z,99.90
2019-02-04T07:22:58.445Z,99.90
2019-02-04T07:25:26.014Z,99.90
2019-02-04T07:27:53.473Z,99.90
2019-02-04T07:30:22.904Z,99.90
2019-02-04T07:32:51.154Z,99.90
2019-02-04T07:35:18.682Z,99.90
2019-02-04T07:37:46.682Z,99.90
2019-02-04T07:40:16.706Z,99.90
2019-02-04T07:42:44.245Z,99.90
2019-02-04T07:45:12.158Z,99.90
2019-02-04T07:47:39.572Z,99.90
2019-02-04T07:50:07.722Z,99.90
2019-02-04T07:52:35.254Z,99.90
2019-02-04T07:55:03.197Z,99.90
2019-02-04T07:57:30.704Z,99.90
2019-02-04T07:59:58.245Z,99.90
2019-02-04T08:02:25.768Z,99.90
2019-02-04T08:04:53.519Z,99.90
2019-02-04T08:07:20.955Z,99.90
2019-02-04T08:09:48.274Z,99.90
2019-02-04T08:12:15.854Z,99.90
2019-02-04T08:14:45.213Z,99.90
2019-02-04T08:17:12.988Z,99.90
2019-02-04T08:19:47.362Z,99.90
2019-02-04T08:22:09.748Z,99.90
2019-02-04T08:24:37.421Z,99.90
2019-02-04T08:27:05.626Z,99.90
2019-02-04T08:29:33.978Z,99.90
2019-02-04T08:32:01.760Z,99.90
2019-02-04T08:34:29.421Z,99.90
2019-02-04T08:36:57.288Z,99.90
2019-02-04T08:39:25.559Z,99.90
2019-02-04T08:41:53.144Z,99.90
2019-02-04T08:44:21.307Z,99.90
2019-02-04T08:46:49.213Z,99.90
2019-02-04T08:49:16.811Z,99.90
2019-02-04T08:51:44.569Z,99.90
2019-02-04T08:54:12.030Z,99.90
2019-02-04T08:56:42.857Z,99.90
2019-02-04T08:59:09.847Z,99.90
2019-02-04T09:01:41.159Z,99.90
2019-02-04T09:04:09.085Z,99.70
2019-02-04T09:06:36.969Z,99.90
2019-02-04T09:09:08.459Z,99.90
2019-02-04T09:11:39.869Z,99.70
2019-02-04T09:14:21.426Z,99.60
2019-02-04T09:17:05.605Z,99.40
2019-02-04T09:19:33.803Z,99.40
2019-02-04T09:36:00.537Z,98.60
2019-02-04T09:38:29.179Z,98.30
2019-02-04T09:41:00.316Z,98.40
2019-02-04T09:43:29.406Z,98.30
2019-02-04T09:45:59.096Z,98.30
2019-02-04T09:48:30.063Z,98.10
2019-02-04T09:51:01.542Z,97.50
2019-02-04T09:53:30.153Z,97.10
2019-02-04T09:56:00.478Z,97.40
2019-02-04T09:58:28.849Z,97.30
2019-02-04T10:01:00.932Z,96.80
2019-02-04T10:03:33.750Z,97.00
2019-02-04T10:06:01.798Z,96.50
2019-02-04T10:08:29.928Z,96.20
2019-02-04T10:11:00.399Z,96.70
2019-02-04T10:13:32.698Z,96.30
2019-02-04T10:16:01.504Z,96.00
2019-02-04T10:18:29.588Z,95.70
2019-02-04T10:20:58.180Z,95.40
2019-02-04T10:23:28.609Z,95.80
2019-02-04T10:25:57.923Z,95.80
2019-02-04T10:28:26.417Z,95.50
2019-02-04T10:30:55.286Z,95.60
2019-02-04T10:33:23.551Z,95.10
2019-02-04T10:35:52.557Z,95.10
2019-02-04T10:38:21.671Z,95.20
2019-02-04T10:40:49.924Z,94.60
2019-02-04T10:43:18.338Z,94.50
2019-02-04T10:45:47.638Z,95.10
2019-02-04T10:48:15.944Z,94.40
2019-02-04T10:50:46.588Z,93.90
2019-02-04T10:55:44.555Z,93.70
2019-02-04T10:58:13.992Z,93.20
2019-02-04T11:00:42.028Z,93.30
2019-02-04T11:03:11.320Z,93.00
2019-02-04T11:05:40.320Z,93.20
2019-02-04T11:08:10.446Z,92.80
2019-02-04T11:10:41.956Z,92.60
2019-02-04T11:13:12.810Z,92.50
2019-02-04T11:15:41.731Z,92.50
2019-02-04T11:18:11.398Z,93.10
2019-02-04T11:20:40.675Z,92.20
2019-02-04T11:23:10.866Z,92.60
2019-02-04T11:25:43.188Z,92.60
2019-02-04T11:28:13.964Z,93.40
2019-02-04T11:31:01.231Z,92.90
2019-02-04T11:33:34.100Z,92.70
2019-02-04T11:36:03.594Z,91.20
2019-02-04T11:38:34.045Z,91.00
2019-02-04T11:41:04.103Z,91.20
2019-02-04T11:43:33.269Z,91.20
2019-02-04T11:46:02.123Z,90.90
2019-02-04T11:48:31.488Z,90.50
2019-02-04T11:51:09.324Z,90.40
2019-02-04T11:53:33.291Z,89.80
2019-02-04T11:56:03.672Z,89.90
2019-02-04T11:58:35.469Z,88.90
2019-02-04T12:01:09.035Z,88.80
2019-02-04T12:03:37.788Z,88.90
2019-02-04T12:06:08.936Z,89.20
2019-02-04T12:08:39.154Z,89.20
2019-02-04T12:11:59.342Z,89.10
2019-02-04T12:14:29.286Z,89.20
2019-02-04T12:16:59.867Z,88.80
2019-02-04T12:19:32.204Z,90.00
2019-02-04T12:22:02.817Z,89.10
2019-02-04T12:24:32.551Z,87.20
2019-02-04T12:27:05.598Z,87.70
2019-02-04T12:29:36.165Z,85.10
2019-02-04T12:32:05.736Z,87.20
2019-02-04T12:34:34.008Z,88.00
2019-02-04T12:37:04.703Z,87.70
2019-02-04T12:39:36.497Z,87.30
2019-02-04T12:42:06.224Z,86.30
2019-02-04T12:44:36.654Z,86.00
2019-02-04T12:47:11.935Z,86.90
2019-02-04T12:49:41.379Z,86.10
2019-02-04T12:52:11.145Z,84.60
2019-02-04T12:54:39.160Z,85.00
2019-02-04T12:57:10.116Z,83.00
2019-02-04T12:59:38.749Z,82.60
2019-02-04T13:02:09.520Z,82.80
2019-02-04T13:04:38.982Z,82.90
2019-02-04T13:07:09.583Z,82.60
2019-02-04T13:09:44.568Z,81.50
2019-02-04T13:12:15.760Z,81.50
2019-02-04T13:14:47.021Z,82.20
2019-02-04T13:17:17.610Z,82.40
2019-02-04T13:19:47.920Z,83.30
2019-02-04T13:22:20.992Z,83.00
2019-02-04T13:24:51.315Z,81.90
2019-02-04T13:27:22.687Z,80.40
2019-02-04T13:29:52.555Z,80.60
2019-02-04T13:32:25.626Z,80.00
2019-02-04T13:34:56.589Z,79.80
2019-02-04T13:37:25.467Z,79.60
2019-02-04T13:39:55.758Z,78.90
2019-02-04T13:42:26.228Z,78.00
2019-02-04T13:44:55.824Z,78.20
2019-02-04T13:47:25.542Z,77.40
2019-02-04T13:49:55.642Z,77.70
2019-02-04T13:52:28.397Z,77.50
2019-02-04T13:54:56.598Z,76.60
2019-02-04T13:57:26.950Z,76.30
2019-02-04T13:59:57.517Z,77.70
2019-02-04T14:02:26.939Z,74.10
2019-02-04T14:04:58.461Z,73.00
2019-02-04T14:07:34.354Z,72.30
2019-02-04T14:10:05.546Z,71.60
2019-02-04T14:12:37.242Z,71.90
2019-02-04T14:15:07.466Z,71.60
2019-02-04T14:17:39.724Z,72.90
2019-02-04T14:20:11.482Z,73.30
2019-02-04T14:22:40.486Z,73.60
2019-02-04T14:25:09.974Z,73.70
2019-02-04T14:27:42.510Z,73.60
2019-02-04T14:30:16.906Z,74.10
2019-02-04T14:32:48.477Z,75.40
2019-02-04T14:35:18.340Z,76.70
2019-02-04T14:37:48.681Z,77.20
2019-02-04T14:40:19.850Z,76.60
2019-02-04T14:42:52.219Z,76.60
2019-02-04T14:46:07.899Z,77.00
2019-02-04T14:49:37.244Z,77.40
2019-02-04T14:52:40.038Z,77.10
2019-02-04T14:55:20.922Z,78.30
2019-02-04T14:58:21.762Z,79.30
2019-02-04T15:01:28.015Z,78.40
2019-02-04T15:05:02.752Z,78.60
2019-02-04T15:08:11.746Z,77.50
2019-02-04T15:11:19.025Z,78.10
2019-02-04T15:14:25.065Z,78.00
2019-02-04T15:17:09.579Z,78.60
2019-02-04T15:20:14.786Z,78.80
2019-02-04T15:23:28.278Z,78.90
2019-02-04T15:26:43.475Z,79.40
2019-02-04T15:29:24.868Z,79.50
2019-02-04T15:32:15.362Z,79.60
2019-02-04T15:35:08.389Z,79.90
2019-02-04T15:38:04.912Z,80.20
2019-02-04T15:41:04.457Z,79.90
2019-02-04T15:44:09.084Z,79.90
2019-02-04T15:47:04.691Z,79.40
2019-02-04T15:50:19.815Z,79.40
2019-02-04T15:52:57.545Z,79.60
2019-02-04T15:55:29.818Z,79.50
2019-02-04T15:58:00.318Z,79.70
2019-02-04T16:00:29.854Z,80.00
2019-02-04T16:03:00.422Z,80.00
2019-02-04T16:05:30.502Z,79.60
2019-02-04T16:08:01.048Z,79.90
2019-02-04T16:10:33.962Z,79.00
2019-02-04T16:13:04.564Z,79.80
2019-02-04T16:15:34.451Z,79.60
2019-02-04T16:18:04.797Z,80.30
2019-02-04T16:20:35.578Z,80.40
2019-02-04T16:23:07.476Z,80.10
2019-02-04T16:25:35.443Z,80.20
2019-02-04T16:28:04.203Z,79.90
2019-02-04T16:30:37.103Z,79.80
2019-02-04T16:33:09.013Z,81.20
2019-02-04T16:35:37.414Z,82.20
2019-02-04T16:38:06.552Z,83.60
2019-02-04T16:40:35.946Z,84.10
2019-02-04T16:43:04.955Z,84.80
2019-02-04T16:45:34.443Z,85.30
2019-02-04T16:48:05.586Z,85.30
2019-02-04T16:50:33.783Z,85.60
2019-02-04T16:53:10.144Z,85.60
2019-02-04T16:55:35.778Z,85.50
2019-02-04T16:58:04.122Z,85.40
2019-02-04T17:00:33.128Z,85.80
2019-02-04T17:03:02.907Z,86.60
2019-02-04T17:05:32.611Z,87.30
2019-02-04T17:08:01.249Z,87.70
2019-02-04T17:10:31.502Z,88.10
2019-02-04T17:13:06.698Z,88.90
2019-02-04T17:15:34.767Z,89.50
2019-02-04T17:18:03.861Z,88.80
2019-02-04T17:20:33.949Z,88.30
2019-02-04T17:23:03.731Z,87.80
2019-02-04T17:25:34.171Z,87.20
2019-02-04T17:28:05.366Z,86.30
2019-02-04T17:30:36.099Z,86.10
2019-02-04T17:33:10.359Z,86.50
2019-02-04T17:35:42.035Z,87.30
2019-02-04T17:38:14.205Z,89.10
2019-02-04T17:40:42.395Z,90.80
2019-02-04T17:43:12.296Z,90.50
2019-02-04T17:45:42.763Z,90.40
2019-02-04T17:48:13.351Z,91.20
2019-02-04T17:50:44.402Z,91.10
2019-02-04T17:53:12.999Z,91.10
2019-02-04T17:55:42.650Z,91.10
2019-02-04T17:58:12.766Z,91.40
2019-02-04T18:00:50.910Z,91.50
2019-02-04T18:03:20.779Z,91.60
2019-02-04T18:05:55.517Z,91.60
2019-02-04T18:08:28.613Z,91.80
2019-02-04T18:11:00.264Z,91.80
2019-02-04T18:13:30.718Z,91.90
2019-02-04T18:16:00.106Z,92.00
2019-02-04T18:18:31.273Z,92.20
2019-02-04T18:21:01.087Z,92.30
2019-02-04T18:23:28.651Z,92.50
2019-02-04T18:25:56.450Z,92.50
2019-02-04T18:28:25.336Z,92.60
2019-02-04T18:30:57.535Z,92.60
2019-02-04T18:33:26.700Z,92.60
2019-02-04T18:35:55.847Z,92.50
2019-02-04T18:38:25.444Z,92.60
2019-02-04T18:40:56.193Z,92.60
2019-02-04T18:43:23.997Z,92.70
2019-02-04T18:45:51.845Z,92.70
2019-02-04T18:48:19.807Z,92.80
2019-02-04T18:50:48.032Z,92.80
2019-02-04T18:53:17.963Z,93.00
2019-02-04T18:55:46.079Z,92.80
2019-02-04T18:58:15.080Z,92.90
2019-02-04T19:00:43.079Z,93.20
2019-02-04T19:03:17.345Z,93.30
2019-02-04T19:05:39.936Z,93.20
2019-02-04T19:08:07.716Z,93.30
2019-02-04T19:10:35.607Z,93.30
2019-02-04T19:13:03.213Z,93.60
2019-02-04T19:15:31.293Z,93.80
2019-02-04T19:18:02.700Z,94.00
2019-02-04T19:20:32.878Z,94.00
2019-02-04T19:23:01.238Z,94.10
2019-02-04T19:25:29.034Z,94.10
2019-02-04T19:27:59.937Z,94.20
2019-02-04T19:30:30.495Z,94.30
2019-02-04T19:32:59.061Z,94.30
2019-02-04T19:35:26.855Z,94.00
2019-02-04T19:37:54.744Z,93.40
2019-02-04T19:40:22.584Z,93.20
2019-02-04T19:42:50.971Z,93.10
2019-02-04T19:45:19.340Z,93.10
2019-02-04T19:47:49.205Z,93.10
2019-02-04T19:50:21.812Z,93.40
2019-02-04T19:52:49.770Z,93.70
2019-02-04T19:55:20.447Z,93.90
2019-02-04T19:57:53.298Z,94.00
2019-02-04T20:00:28.042Z,94.20
2019-02-04T20:03:29.692Z,94.40
2019-02-04T20:06:07.261Z,94.40
2019-02-04T20:10:03.928Z,94.50
2019-02-04T20:11:59.314Z,94.40
2019-02-04T20:15:02.296Z,94.60
2019-02-04T20:41:12.998Z,95.30
2019-02-04T20:43:40.933Z,95.40
2019-02-04T20:46:08.472Z,95.30
2019-02-04T20:48:36.157Z,95.20
2019-02-04T20:51:04.476Z,95.10
2019-02-04T20:53:32.232Z,95.20
2019-02-04T20:55:59.742Z,95.10
2019-02-04T20:58:27.310Z,95.20
2019-02-04T21:00:54.927Z,95.20
2019-02-04T21:03:22.421Z,95.40
2019-02-04T21:05:50.370Z,95.50
2019-02-04T21:08:18.999Z,95.60
2019-02-04T21:10:46.879Z,95.60
2019-02-04T21:13:14.421Z,95.70
2019-02-04T21:15:42.687Z,95.70
2019-02-04T21:18:11.047Z,95.80
2019-02-04T21:20:38.976Z,95.90
2019-02-04T21:23:06.421Z,96.00
2019-02-04T21:25:34.275Z,95.90
2019-02-04T21:28:01.831Z,96.00
2019-02-04T21:30:31.503Z,96.10
2019-02-04T21:32:59.762Z,96.10
2019-02-04T21:35:27.365Z,96.00
2019-02-04T21:37:55.331Z,96.00
2019-02-04T21:40:23.341Z,96.20
2019-02-04T21:42:52.269Z,96.20
2019-02-04T21:45:20.044Z,96.20
2019-02-04T21:47:47.625Z,96.20
2019-02-04T21:50:18.505Z,96.20
2019-02-04T21:52:46.264Z,96.20
2019-02-04T21:55:14.836Z,96.20
2019-02-04T21:57:42.725Z,96.10
2019-02-04T22:00:13.219Z,96.00
2019-02-04T22:02:41.195Z,96.20
2019-02-04T22:05:10.619Z,96.30
2019-02-04T22:07:38.092Z,96.30
2019-02-04T22:10:09.339Z,96.20
2019-02-04T22:12:37.086Z,96.10
2019-02-04T22:15:06.250Z,95.90
2019-02-04T22:17:33.830Z,96.00
2019-02-04T22:20:01.541Z,96.00
2019-02-04T22:22:29.431Z,96.30
2019-02-04T22:24:57.257Z,96.50
2019-02-04T22:27:25.375Z,96.50
2019-02-04T22:29:52.930Z,96.30
2019-02-04T22:32:20.384Z,96.30
2019-02-04T22:34:48.218Z,96.30
2019-02-04T22:37:16.311Z,96.30
2019-02-04T22:39:44.060Z,96.20
2019-02-04T22:42:11.820Z,96.30
2019-02-04T22:44:39.299Z,96.30
2019-02-04T22:47:06.811Z,96.30
2019-02-04T22:49:34.751Z,96.30
2019-02-04T22:52:02.231Z,96.50
2019-02-04T22:54:29.862Z,96.50
2019-02-04T22:56:57.353Z,96.70
2019-02-04T22:59:24.894Z,96.70
2019-02-04T23:01:54.473Z,96.60
2019-02-04T23:04:22.296Z,96.80
2019-02-04T23:06:49.728Z,96.80
2019-02-04T23:09:17.431Z,96.80
2019-02-04T23:11:45.252Z,96.80
2019-02-04T23:14:13.315Z,96.80
2019-02-04T23:16:40.804Z,96.90
2019-02-04T23:19:08.396Z,96.90
2019-02-04T23:21:36.273Z,96.80
2019-02-04T23:24:05.884Z,96.80
2019-02-04T23:26:33.395Z,97.10
2019-02-04T23:29:00.976Z,97.30
2019-02-04T23:31:28.614Z,97.30
2019-02-04T23:33:56.502Z,97.30
2019-02-04T23:36:24.256Z,97.20
2019-02-04T23:38:51.791Z,97.20
2019-02-04T23:41:19.235Z,97.20
2019-02-04T23:43:46.723Z,97.20
2019-02-04T23:46:14.523Z,97.10
2019-02-04T23:48:42.005Z,97.10
2019-02-04T23:51:09.487Z,97.00
2019-02-04T23:53:37.011Z,96.90
2019-02-04T23:56:04.646Z,96.70
2019-02-04T23:58:32.228Z,96.60
